createdAt,value
2022-11-27T00:00:38.789Z,99385.94
2022-11-27T00:03:05.389Z,99385.13
2022-11-27T00:05:32.204Z,99369.25
2022-11-27T00:07:58.830Z,99371.75
2022-11-27T00:10:25.433Z,99379.38
2022-11-27T00:12:51.918Z,99372.75
2022-11-27T00:15:18.878Z,99369.72
2022-11-27T00:17:45.333Z,99375.78
2022-11-27T00:20:12.424Z,99359.31
2022-11-27T00:22:38.912Z,99355.25
2022-11-27T00:25:05.828Z,99348.94
2022-11-27T00:27:32.366Z,99343.16
2022-11-27T00:29:58.872Z,99348.31
2022-11-27T00:32:25.345Z,99344.25
2022-11-27T00:34:51.890Z,99344.47
2022-11-27T00:37:18.420Z,99340.91
2022-11-27T00:39:44.937Z,99332.94
2022-11-27T00:42:11.483Z,99336.56
2022-11-27T00:44:38.271Z,99326.91
2022-11-27T00:47:05.193Z,99333.47
2022-11-27T00:49:32.350Z,99327.72
2022-11-27T00:51:59.078Z,99330.25
2022-11-27T00:54:25.551Z,99318.44
2022-11-27T00:56:52.062Z,99325.25
2022-11-27T00:59:18.607Z,99319.75
2022-11-27T01:01:45.218Z,99322.00
2022-11-27T01:04:13.977Z,99319.50
2022-11-27T01:06:40.971Z,99308.22
2022-11-27T01:09:07.817Z,99317.84
2022-11-27T01:11:34.849Z,99318.09
2022-11-27T01:14:04.525Z,99312.06
2022-11-27T01:16:31.748Z,99312.03
2022-11-27T01:18:59.073Z,99298.59
2022-11-27T01:21:26.610Z,99290.06
2022-11-27T01:23:53.914Z,99291.72
2022-11-27T01:26:20.496Z,99287.59
2022-11-27T01:28:46.947Z,99287.06
2022-11-27T01:31:15.486Z,99293.94
2022-11-27T01:33:42.373Z,99277.47
2022-11-27T01:36:10.048Z,99282.41
2022-11-27T01:38:36.706Z,99272.25
2022-11-27T01:41:06.547Z,99275.53
2022-11-27T01:43:36.712Z,99264.84
2022-11-27T01:46:03.260Z,99255.84
2022-11-27T01:48:29.773Z,99251.13
2022-11-27T01:50:56.532Z,99250.59
2022-11-27T01:53:23.006Z,99254.50
2022-11-27T01:55:52.166Z,99242.97
2022-11-27T01:58:21.821Z,99245.16
2022-11-27T02:00:48.289Z,99242.16
2022-11-27T02:03:16.034Z,99246.53
2022-11-27T02:05:42.637Z,99242.66
2022-11-27T02:08:13.807Z,99250.06
2022-11-27T02:10:49.417Z,99241.53
2022-11-27T02:13:30.953Z,99242.38
2022-11-27T02:16:13.735Z,99236.53
2022-11-27T02:19:01.758Z,99239.84
2022-11-27T02:21:39.406Z,99241.47
2022-11-27T02:24:34.689Z,99239.63
2022-11-27T02:27:01.032Z,99237.97
2022-11-27T02:29:29.656Z,99231.69
2022-11-27T02:31:58.949Z,99236.09
2022-11-27T02:34:34.930Z,99237.47
2022-11-27T02:37:15.052Z,99235.81
2022-11-27T02:39:50.174Z,99226.50
2022-11-27T02:42:20.392Z,99231.97
2022-11-27T02:44:49.180Z,99225.41
2022-11-27T02:47:16.135Z,99234.19
2022-11-27T02:49:42.857Z,99236.97
2022-11-27T02:52:09.329Z,99227.91
2022-11-27T02:54:35.863Z,99217.47
2022-11-27T02:57:03.692Z,99220.22
2022-11-27T02:59:31.224Z,99217.75
2022-11-27T03:02:00.859Z,99218.56
2022-11-27T03:04:32.319Z,99216.38
2022-11-27T03:06:59.550Z,99212.50
2022-11-27T03:09:36.644Z,99196.31
2022-11-27T03:12:04.251Z,99194.69
2022-11-27T03:14:30.713Z,99199.91
2022-11-27T03:17:02.520Z,99190.38
2022-11-27T03:19:46.240Z,99190.63
2022-11-27T03:22:12.776Z,99190.88
2022-11-27T03:24:39.692Z,99184.84
2022-11-27T03:27:06.433Z,99193.09
2022-11-27T03:29:37.172Z,99193.38
2022-11-27T03:32:03.823Z,99196.38
2022-11-27T03:34:30.285Z,99193.09
2022-11-27T03:36:56.753Z,99184.50
2022-11-27T03:39:23.214Z,99180.13
2022-11-27T03:42:34.318Z,99183.75
2022-11-27T03:45:25.192Z,99175.56
2022-11-27T03:48:44.239Z,99170.06
2022-11-27T03:51:28.927Z,99177.44
2022-11-27T03:54:34.371Z,99183.75
2022-11-27T03:57:14.521Z,99171.94
2022-11-27T03:59:42.253Z,99171.66
2022-11-27T04:02:15.194Z,99175.00
2022-11-27T04:04:41.979Z,99175.59
2022-11-27T04:07:13.810Z,99178.59
2022-11-27T04:09:40.295Z,99184.59
2022-11-27T04:12:07.215Z,99187.63
2022-11-27T04:14:33.935Z,99164.59
2022-11-27T04:17:00.413Z,99168.69
2022-11-27T04:19:26.869Z,99167.63
2022-11-27T04:21:53.356Z,99171.47
2022-11-27T04:24:19.964Z,99173.38
2022-11-27T04:26:46.427Z,99169.53
2022-11-27T04:29:12.906Z,99162.38
2022-11-27T04:31:39.849Z,99159.94
2022-11-27T04:34:06.379Z,99157.72
2022-11-27T04:36:38.818Z,99167.88
2022-11-27T04:39:05.826Z,99174.75
2022-11-27T04:41:32.323Z,99164.56
2022-11-27T04:43:58.789Z,99165.66
2022-11-27T04:46:25.269Z,99162.38
2022-11-27T04:48:51.764Z,99160.84
2022-11-27T04:51:18.235Z,99152.84
2022-11-27T04:53:44.699Z,99146.00
2022-11-27T04:56:11.147Z,99142.38
2022-11-27T04:58:37.909Z,99139.72
2022-11-27T05:01:04.398Z,99130.41
2022-11-27T05:03:30.905Z,99131.50
2022-11-27T05:05:57.523Z,99142.47
2022-11-27T05:08:24.806Z,99136.16
2022-11-27T05:11:04.878Z,99138.59
2022-11-27T05:13:31.402Z,99142.38
2022-11-27T05:15:57.909Z,99135.84
2022-11-27T05:18:24.465Z,99131.75
2022-11-27T05:21:05.182Z,99130.41
2022-11-27T05:23:31.959Z,99136.44
2022-11-27T05:25:58.450Z,99121.06
2022-11-27T05:28:26.859Z,99118.06
2022-11-27T05:30:54.091Z,99107.34
2022-11-27T05:33:20.717Z,99099.41
2022-11-27T05:35:47.173Z,99096.94
2022-11-27T05:38:13.666Z,99089.00
2022-11-27T05:40:40.118Z,99087.03
2022-11-27T05:43:07.044Z,99077.72
2022-11-27T05:45:33.506Z,99081.28
2022-11-27T05:48:00.019Z,99080.44
2022-11-27T05:50:26.497Z,99085.28
2022-11-27T05:52:52.979Z,99087.78
2022-11-27T05:55:19.470Z,99090.25
2022-11-27T05:57:45.961Z,99079.53
2022-11-27T06:00:12.968Z,99082.91
2022-11-27T06:02:39.555Z,99079.91
2022-11-27T06:05:06.876Z,99083.22
2022-11-27T06:07:33.392Z,99079.66
2022-11-27T06:09:59.908Z,99080.97
2022-11-27T06:12:26.594Z,99083.72
2022-11-27T06:14:53.037Z,99086.22
2022-11-27T06:17:19.508Z,99088.41
2022-11-27T06:19:46.071Z,99088.56
2022-11-27T06:22:12.533Z,99085.53
2022-11-27T06:24:39.319Z,99083.66
2022-11-27T06:27:06.073Z,99090.78
2022-11-27T06:29:32.538Z,99083.94
2022-11-27T06:31:59.061Z,99084.22
2022-11-27T06:34:25.566Z,99087.22
2022-11-27T06:36:52.381Z,99089.97
2022-11-27T06:39:19.122Z,99083.59
2022-11-27T06:41:45.573Z,99077.31
2022-11-27T06:44:12.047Z,99072.91
2022-11-27T06:46:38.840Z,99070.75
2022-11-27T06:49:05.358Z,99070.81
2022-11-27T06:51:32.175Z,99071.03
2022-11-27T06:54:01.892Z,99071.09
2022-11-27T06:56:29.511Z,99065.91
2022-11-27T06:58:57.639Z,99065.06
2022-11-27T07:01:25.325Z,99053.56
2022-11-27T07:03:51.868Z,99060.41
2022-11-27T07:06:20.210Z,99059.63
2022-11-27T07:08:46.820Z,99051.38
2022-11-27T07:11:18.460Z,99048.06
2022-11-27T07:13:48.556Z,99064.81
2022-11-27T07:16:15.477Z,99052.22
2022-11-27T07:18:43.567Z,99050.78
2022-11-27T07:21:10.230Z,99054.91
2022-11-27T07:23:36.820Z,99048.59
2022-11-27T07:26:17.113Z,99035.47
2022-11-27T07:28:46.385Z,99050.53
2022-11-27T07:31:14.236Z,99043.38
2022-11-27T07:33:40.796Z,99030.97
2022-11-27T07:36:10.799Z,99028.50
2022-11-27T07:38:37.276Z,99038.38
2022-11-27T07:41:04.087Z,99038.34
2022-11-27T07:43:31.241Z,99032.75
2022-11-27T07:45:57.769Z,99024.53
2022-11-27T07:48:24.303Z,99024.44
2022-11-27T07:50:50.811Z,99020.03
2022-11-27T07:53:17.316Z,99014.78
2022-11-27T07:55:43.798Z,99010.09
2022-11-27T07:58:10.291Z,99009.53
2022-11-27T08:00:37.512Z,99007.53
2022-11-27T08:03:04.053Z,99006.94
2022-11-27T08:05:30.513Z,99003.31
2022-11-27T08:07:59.993Z,98998.59
2022-11-27T08:10:26.578Z,99015.59
2022-11-27T08:12:53.086Z,99016.41
2022-11-27T08:15:19.541Z,99007.06
2022-11-27T08:17:46.002Z,99016.09
2022-11-27T08:20:12.588Z,99015.81
2022-11-27T08:22:39.081Z,99015.19
2022-11-27T08:25:05.905Z,99002.50
2022-11-27T08:27:33.267Z,98993.56
2022-11-27T08:30:00.226Z,98996.31
2022-11-27T08:32:26.685Z,98997.09
2022-11-27T08:34:53.176Z,98985.50
2022-11-27T08:37:19.644Z,98990.13
2022-11-27T08:39:46.247Z,98992.06
2022-11-27T08:42:12.749Z,98993.81
2022-11-27T08:44:39.495Z,98982.75
2022-11-27T08:47:06.211Z,98987.22
2022-11-27T08:49:32.666Z,98979.50
2022-11-27T08:51:59.126Z,98976.97
2022-11-27T08:54:25.641Z,98970.72
2022-11-27T08:56:52.610Z,98972.13
2022-11-27T08:59:19.300Z,98974.81
2022-11-27T09:01:45.765Z,98979.03
2022-11-27T09:04:12.269Z,98976.50
2022-11-27T09:06:40.722Z,98974.22
2022-11-27T09:09:07.278Z,98970.06
2022-11-27T09:11:33.967Z,98969.75
2022-11-27T09:14:00.883Z,98967.78
2022-11-27T09:16:28.131Z,98951.97
2022-11-27T09:18:54.821Z,98954.94
2022-11-27T09:21:22.180Z,98950.44
2022-11-27T09:23:48.979Z,98950.59
2022-11-27T09:26:16.256Z,98933.59
2022-11-27T09:28:43.171Z,98941.28
2022-11-27T09:31:10.890Z,98923.88
2022-11-27T09:33:38.355Z,98920.59
2022-11-27T09:36:09.369Z,98912.53
2022-11-27T09:38:36.339Z,98919.91
2022-11-27T09:41:11.392Z,98917.34
2022-11-27T09:43:49.272Z,98926.84
2022-11-27T09:46:24.104Z,98919.56
2022-11-27T09:48:50.661Z,98906.03
2022-11-27T09:51:42.819Z,98914.28
2022-11-27T09:54:30.800Z,98905.50
2022-11-27T09:56:57.370Z,98915.91
2022-11-27T09:59:39.590Z,98911.13
2022-11-27T10:02:21.776Z,98897.03
2022-11-27T10:05:12.094Z,98900.53
2022-11-27T10:07:47.107Z,98894.19
2022-11-27T10:10:32.054Z,98895.09
2022-11-27T10:13:13.595Z,98901.13
2022-11-27T10:15:56.105Z,98900.91
2022-11-27T10:18:35.611Z,98881.09
2022-11-27T10:21:34.348Z,98890.00
2022-11-27T10:24:11.272Z,98884.19
2022-11-27T10:26:41.764Z,98872.91
2022-11-27T10:29:26.616Z,98860.88
2022-11-27T10:32:00.233Z,98866.38
2022-11-27T10:34:43.550Z,98857.19
2022-11-27T10:37:32.406Z,98864.84
2022-11-27T10:40:01.898Z,98849.06
2022-11-27T10:42:34.921Z,98856.13
2022-11-27T10:45:22.856Z,98856.91
2022-11-27T10:47:49.459Z,98857.09
2022-11-27T10:50:17.638Z,98852.72
2022-11-27T10:52:55.416Z,98861.66
2022-11-27T10:55:34.599Z,98848.38
2022-11-27T10:58:03.452Z,98850.22
2022-11-27T11:00:29.990Z,98846.00
2022-11-27T11:03:04.815Z,98840.34
2022-11-27T11:05:45.104Z,98848.63
2022-11-27T11:08:19.302Z,98835.50
2022-11-27T11:11:12.270Z,98827.03
2022-11-27T11:13:41.810Z,98828.84
2022-11-27T11:16:14.675Z,98834.47
2022-11-27T11:18:46.325Z,98828.34
2022-11-27T11:21:15.690Z,98834.78
2022-11-27T11:23:42.310Z,98814.56
2022-11-27T11:26:23.259Z,98813.75
2022-11-27T11:28:57.697Z,98810.00
2022-11-27T11:31:32.959Z,98811.53
2022-11-27T11:34:04.077Z,98812.09
2022-11-27T11:36:30.569Z,98811.44
2022-11-27T11:38:57.022Z,98802.53
2022-11-27T11:41:24.469Z,98802.84
2022-11-27T11:43:56.446Z,98794.56
2022-11-27T11:46:25.262Z,98796.19
2022-11-27T11:49:15.892Z,98784.72
2022-11-27T11:51:51.725Z,98785.53
2022-11-27T11:54:28.378Z,98782.63
2022-11-27T11:56:54.877Z,98781.81
2022-11-27T11:59:25.242Z,98782.97
2022-11-27T12:01:54.309Z,98773.44
2022-11-27T12:04:56.892Z,98761.94
2022-11-27T12:07:52.388Z,98760.44
2022-11-27T12:10:29.061Z,98744.88
2022-11-27T12:13:06.623Z,98747.44
2022-11-27T12:15:46.618Z,98744.88
2022-11-27T12:18:25.513Z,98743.94
2022-11-27T12:21:10.965Z,98742.16
2022-11-27T12:23:37.318Z,98748.81
2022-11-27T12:26:13.255Z,98749.44
2022-11-27T12:29:07.494Z,98738.72
2022-11-27T12:32:11.672Z,98740.50
2022-11-27T12:34:48.332Z,98733.84
2022-11-27T12:37:29.797Z,98719.41
2022-11-27T12:40:17.971Z,98724.75
2022-11-27T12:42:48.822Z,98718.91
2022-11-27T12:45:22.352Z,98722.94
2022-11-27T12:47:55.583Z,98715.63
2022-11-27T12:50:30.851Z,98705.09
2022-11-27T12:53:11.719Z,98704.94
2022-11-27T12:55:38.696Z,98710.94
2022-11-27T12:58:07.002Z,98685.09
2022-11-27T13:00:35.950Z,98685.91
2022-11-27T13:03:06.730Z,98682.66
2022-11-27T13:05:56.680Z,98681.88
2022-11-27T13:09:18.509Z,98679.59
2022-11-27T13:11:45.034Z,98677.97
2022-11-27T13:14:18.213Z,98665.63
2022-11-27T13:16:47.274Z,98683.00
2022-11-27T13:19:24.382Z,98678.31
2022-11-27T13:21:50.960Z,98668.91
2022-11-27T13:24:17.550Z,98671.69
2022-11-27T13:27:06.519Z,98665.47
2022-11-27T13:29:39.566Z,98668.75
2022-11-27T13:32:06.453Z,98661.09
2022-11-27T13:34:33.409Z,98656.72
2022-11-27T13:37:04.618Z,98645.84
2022-11-27T13:39:38.959Z,98639.31
2022-11-27T13:42:13.794Z,98639.66
2022-11-27T13:44:42.714Z,98633.47
2022-11-27T13:47:19.343Z,98629.91
2022-11-27T13:49:47.955Z,98623.91
2022-11-27T13:52:15.968Z,98622.75
2022-11-27T13:55:01.975Z,98618.72
2022-11-27T13:57:29.563Z,98621.13
2022-11-27T14:00:10.939Z,98615.94
2022-11-27T14:02:47.146Z,98603.44
2022-11-27T14:05:18.052Z,98601.50
2022-11-27T14:07:49.288Z,98590.28
2022-11-27T14:10:19.174Z,98587.69
2022-11-27T14:12:54.099Z,98583.13
2022-11-27T14:15:23.344Z,98581.19
2022-11-27T14:17:50.922Z,98581.34
2022-11-27T14:20:17.459Z,98580.69
2022-11-27T14:23:09.977Z,98574.06
2022-11-27T14:25:33.749Z,98578.56
2022-11-27T14:28:25.923Z,98569.31
2022-11-27T14:30:53.846Z,98565.91
2022-11-27T14:33:31.420Z,98561.84
2022-11-27T14:36:04.085Z,98556.00
2022-11-27T14:38:32.137Z,98548.38
2022-11-27T14:41:15.307Z,98558.94
2022-11-27T14:43:41.775Z,98552.44
2022-11-27T14:46:17.381Z,98549.84
2022-11-27T14:48:57.451Z,98543.50
2022-11-27T14:51:26.334Z,98535.91
2022-11-27T14:53:57.097Z,98515.91
2022-11-27T14:56:23.561Z,98520.59
2022-11-27T14:58:53.942Z,98515.41
2022-11-27T15:01:27.477Z,98515.09
2022-11-27T15:04:01.382Z,98500.19
2022-11-27T15:06:44.638Z,98505.69
2022-11-27T15:09:31.819Z,98512.19
2022-11-27T15:12:26.145Z,98499.03
2022-11-27T15:15:00.090Z,98517.38
2022-11-27T15:17:28.612Z,98498.06
2022-11-27T15:19:55.502Z,98491.88
2022-11-27T15:22:21.966Z,98491.06
2022-11-27T15:24:58.584Z,98480.50
2022-11-27T15:27:25.096Z,98484.09
2022-11-27T15:29:54.615Z,98491.25
2022-11-27T15:32:23.981Z,98493.00
2022-11-27T15:34:51.084Z,98485.06
2022-11-27T15:37:30.754Z,98477.47
2022-11-27T15:39:58.229Z,98458.44
2022-11-27T15:42:26.019Z,98466.25
2022-11-27T15:44:54.268Z,98468.53
2022-11-27T15:47:31.035Z,98469.97
2022-11-27T15:49:57.948Z,98459.75
2022-11-27T15:52:24.463Z,98457.94
2022-11-27T15:54:51.113Z,98470.81
2022-11-27T15:57:17.646Z,98466.09
2022-11-27T15:59:44.103Z,98475.97
2022-11-27T16:02:16.074Z,98462.34
2022-11-27T16:04:44.111Z,98476.00
2022-11-27T16:07:10.671Z,98461.06
2022-11-27T16:09:39.523Z,98469.81
2022-11-27T16:12:06.102Z,98481.66
2022-11-27T16:14:32.602Z,98469.00
2022-11-27T16:17:00.507Z,98460.22
2022-11-27T16:19:27.187Z,98446.78
2022-11-27T16:21:53.669Z,98435.41
2022-11-27T16:24:20.168Z,98439.94
2022-11-27T16:26:46.955Z,98451.97
2022-11-27T16:29:13.488Z,98438.50
2022-11-27T16:31:40.107Z,98441.44
2022-11-27T16:34:06.722Z,98440.13
2022-11-27T16:36:33.232Z,98438.50
2022-11-27T16:38:59.741Z,98437.53
2022-11-27T16:41:26.327Z,98438.84
2022-11-27T16:43:54.978Z,98430.56
2022-11-27T16:46:26.306Z,98424.84
2022-11-27T16:48:53.685Z,98424.53
2022-11-27T16:51:25.191Z,98402.94
2022-11-27T16:53:53.360Z,98400.34
2022-11-27T16:56:22.644Z,98403.75
2022-11-27T16:58:49.234Z,98402.28
2022-11-27T17:01:17.904Z,98393.38
2022-11-27T17:03:45.047Z,98405.25
2022-11-27T17:06:13.390Z,98409.28
2022-11-27T17:08:39.842Z,98407.03
2022-11-27T17:11:13.710Z,98391.59
2022-11-27T17:13:40.472Z,98386.75
2022-11-27T17:16:08.599Z,98388.03
2022-11-27T17:18:39.027Z,98382.53
2022-11-27T17:21:07.037Z,98381.38
2022-11-27T17:23:33.635Z,98379.94
2022-11-27T17:26:07.084Z,98383.19
2022-11-27T17:28:33.565Z,98387.06
2022-11-27T17:31:00.004Z,98383.66
2022-11-27T17:33:26.518Z,98389.50
2022-11-27T17:35:52.970Z,98365.66
2022-11-27T17:38:19.433Z,98370.06
2022-11-27T17:40:45.893Z,98372.00
2022-11-27T17:43:12.416Z,98368.09
2022-11-27T17:45:42.029Z,98369.25
2022-11-27T17:48:08.542Z,98365.81
2022-11-27T17:50:35.033Z,98364.53
2022-11-27T17:53:03.417Z,98348.31
2022-11-27T17:55:30.005Z,98346.66
2022-11-27T17:57:56.621Z,98340.81
2022-11-27T18:00:23.208Z,98337.56
2022-11-27T18:02:50.189Z,98331.59
2022-11-27T18:05:16.892Z,98326.22
2022-11-27T18:07:44.284Z,98331.13
2022-11-27T18:10:12.477Z,98333.06
2022-11-27T18:12:39.178Z,98335.50
2022-11-27T18:15:06.188Z,98327.22
2022-11-27T18:17:33.004Z,98327.06
2022-11-27T18:20:00.648Z,98327.56
2022-11-27T18:22:27.296Z,98331.13
2022-11-27T18:24:53.780Z,98325.44
2022-11-27T18:27:20.367Z,98317.34
2022-11-27T18:29:47.209Z,98319.78
2022-11-27T18:32:14.545Z,98318.28
2022-11-27T18:34:41.366Z,98311.63
2022-11-27T18:37:08.201Z,98304.16
2022-11-27T18:39:36.007Z,98293.66
2022-11-27T18:42:03.444Z,98308.25
2022-11-27T18:44:30.064Z,98304.19
2022-11-27T18:46:56.704Z,98299.31
2022-11-27T18:49:23.692Z,98297.06
2022-11-27T18:51:53.913Z,98301.72
2022-11-27T18:54:21.149Z,98296.56
2022-11-27T18:56:48.192Z,98289.44
2022-11-27T18:59:14.871Z,98293.16
2022-11-27T19:01:42.758Z,98286.19
2022-11-27T19:04:10.412Z,98285.69
2022-11-27T19:06:37.324Z,98296.56
2022-11-27T19:09:03.972Z,98300.31
2022-11-27T19:11:30.911Z,98288.63
2022-11-27T19:13:57.667Z,98294.63
2022-11-27T19:16:29.012Z,98298.38
2022-11-27T19:18:59.004Z,98291.72
2022-11-27T19:21:26.878Z,98289.59
2022-11-27T19:23:53.466Z,98282.97
2022-11-27T19:26:21.685Z,98270.66
2022-11-27T19:28:48.874Z,98277.28
2022-11-27T19:31:16.390Z,98280.22
2022-11-27T19:33:43.114Z,98273.25
2022-11-27T19:36:12.822Z,98259.63
2022-11-27T19:38:40.725Z,98261.41
2022-11-27T19:41:11.393Z,98260.28
2022-11-27T19:43:37.912Z,98255.72
2022-11-27T19:46:19.405Z,98256.38
2022-11-27T19:48:45.924Z,98262.69
2022-11-27T19:51:13.041Z,98257.19
2022-11-27T19:53:39.572Z,98258.81
2022-11-27T19:56:06.435Z,98260.63
2022-11-27T19:58:32.913Z,98257.22
2022-11-27T20:01:16.079Z,98256.56
2022-11-27T20:03:42.831Z,98245.38
2022-11-27T20:06:17.094Z,98240.69
2022-11-27T20:08:44.066Z,98244.88
2022-11-27T20:11:11.837Z,98238.09
2022-11-27T20:13:38.442Z,98238.56
2022-11-27T20:16:15.172Z,98236.78
2022-11-27T20:18:41.800Z,98229.97
2022-11-27T20:21:09.446Z,98230.63
2022-11-27T20:23:35.974Z,98233.69
2022-11-27T20:26:06.562Z,98233.22
2022-11-27T20:28:33.257Z,98229.16
2022-11-27T20:31:01.050Z,98230.78
2022-11-27T20:33:27.839Z,98229.31
2022-11-27T20:35:55.055Z,98220.44
2022-11-27T20:38:21.881Z,98230.44
2022-11-27T20:40:48.774Z,98225.47
2022-11-27T20:43:15.474Z,98217.19
2022-11-27T20:45:42.125Z,98212.63
2022-11-27T20:48:08.933Z,98215.88
2022-11-27T20:50:36.289Z,98218.63
2022-11-27T20:53:02.755Z,98207.00
2022-11-27T20:55:29.231Z,98208.72
2022-11-27T20:57:55.767Z,98203.22
2022-11-27T21:00:22.639Z,98201.75
2022-11-27T21:02:49.182Z,98192.19
2022-11-27T21:05:15.998Z,98201.78
2022-11-27T21:07:42.833Z,98194.66
2022-11-27T21:10:11.403Z,98190.44
2022-11-27T21:12:38.092Z,98186.38
2022-11-27T21:15:05.175Z,98193.50
2022-11-27T21:17:31.733Z,98187.34
2022-11-27T21:20:01.305Z,98186.88
2022-11-27T21:22:28.373Z,98176.31
2022-11-27T21:24:54.908Z,98179.25
2022-11-27T21:27:21.388Z,98165.97
2022-11-27T21:29:47.842Z,98165.81
2022-11-27T21:32:14.713Z,98171.97
2022-11-27T21:34:41.332Z,98167.44
2022-11-27T21:37:08.029Z,98164.19
2022-11-27T21:39:34.558Z,98166.47
2022-11-27T21:42:01.017Z,98163.03
2022-11-27T21:44:27.825Z,98161.75
2022-11-27T21:46:54.388Z,98147.69
2022-11-27T21:49:20.906Z,98156.09
2022-11-27T21:51:51.033Z,98146.41
2022-11-27T21:54:18.737Z,98143.16
2022-11-27T21:56:45.201Z,98139.91
2022-11-27T21:59:14.824Z,98123.38
2022-11-27T22:01:41.388Z,98138.59
2022-11-27T22:04:07.947Z,98138.28
2022-11-27T22:06:38.885Z,98137.00
2022-11-27T22:09:07.389Z,98130.34
2022-11-27T22:11:35.746Z,98126.31
2022-11-27T22:14:04.199Z,98108.16
2022-11-27T22:16:32.255Z,98112.03
2022-11-27T22:18:59.068Z,98106.06
2022-11-27T22:21:27.196Z,98087.31
2022-11-27T22:23:53.796Z,98097.94
2022-11-27T22:26:21.089Z,98088.09
2022-11-27T22:28:47.873Z,98064.31
2022-11-27T22:31:20.200Z,98041.97
2022-11-27T22:33:46.763Z,98031.63
2022-11-27T22:36:24.520Z,98024.50
2022-11-27T22:38:52.287Z,98021.25
2022-11-27T22:41:19.791Z,98018.84
2022-11-27T22:43:46.315Z,98014.28
2022-11-27T22:46:29.523Z,98040.34
2022-11-27T22:48:58.032Z,98042.75
2022-11-27T22:51:25.545Z,98039.22
2022-11-27T22:53:52.453Z,98046.84
2022-11-27T22:56:18.918Z,98045.53
2022-11-27T22:58:45.661Z,98021.44
2022-11-27T23:01:17.284Z,98033.53
2022-11-27T23:03:43.788Z,98034.38
2022-11-27T23:06:12.143Z,98040.84
2022-11-27T23:08:42.842Z,98040.34
2022-11-27T23:11:10.412Z,98039.34
2022-11-27T23:13:36.990Z,98042.28
2022-11-27T23:16:04.584Z,98046.47
2022-11-27T23:18:31.461Z,98029.16
2022-11-27T23:20:57.928Z,98031.47
2022-11-27T23:23:24.390Z,98030.47
2022-11-27T23:25:50.860Z,98040.03
2022-11-27T23:28:17.335Z,98025.47
2022-11-27T23:30:43.791Z,98018.31
2022-11-27T23:33:10.249Z,98020.94
2022-11-27T23:35:36.708Z,98025.59
2022-11-27T23:38:03.488Z,98009.44
2022-11-27T23:40:29.970Z,98006.97
2022-11-27T23:42:56.449Z,97999.25
2022-11-27T23:45:23.062Z,97997.91
2022-11-27T23:47:50.420Z,97991.59
2022-11-27T23:50:17.191Z,98000.03
2022-11-27T23:52:43.697Z,97983.19
2022-11-27T23:55:10.154Z,97975.41
2022-11-27T23:57:36.626Z,97966.84
